Time;durP1;ratioP1;P1;durP2;ratioP2;P2;SDS_P1;SDS_P2;PMS_P1;PMS_P2;Temp;Humidity;BMP_temperature;BMP_pressure;BME280_temperature;BME280_humidity;BME280_pressure;Samples;Min_cycle;Max_cycle;Signal;HPM_P1;HPM_P2
2022/04/05 00:01:05;;;;;;;2.58;2.38;;;21.20;64.70;;;;;;6260195;27;89102;-70
2022/04/05 00:04:07;;;;;;;2.45;2.25;;;21.20;64.70;;;;;;6258162;27;90354;-70
2022/04/05 00:07:09;;;;;;;2.78;2.55;;;21.20;64.60;;;;;;6258554;27;89416;-71
2022/04/05 00:10:12;;;;;;;2.70;2.50;;;21.20;64.60;;;;;;6258307;27;89456;-70
2022/04/05 00:13:14;;;;;;;3.03;2.75;;;21.20;64.60;;;;;;6258124;27;89029;-70
2022/04/05 00:16:16;;;;;;;3.20;2.90;;;21.20;64.60;;;;;;6257104;27;89080;-70
2022/04/05 00:19:56;;;;;;;3.20;2.90;;;21.20;64.60;;;;;;6259381;27;88916;-71
2022/04/05 00:22:58;;;;;;;3.05;2.75;;;21.10;64.60;;;;;;6257731;27;88295;-70
2022/04/05 00:26:01;;;;;;;3.50;3.20;;;21.10;64.60;;;;;;6257767;27;87415;-71
2022/04/05 00:29:04;;;;;;;3.53;3.22;;;21.10;64.60;;;;;;6256116;27;89101;-71
2022/04/05 00:32:06;;;;;;;3.60;3.30;;;21.10;64.60;;;;;;6246815;27;89043;-71
2022/04/05 00:35:10;;;;;;;3.30;3.00;;;21.10;64.60;;;;;;6258677;27;89961;-70
2022/04/05 00:38:12;;;;;;;3.53;3.22;;;21.10;65.50;;;;;;6258002;27;89478;-71
2022/04/05 00:41:15;;;;;;;3.63;3.33;;;21.10;64.60;;;;;;6257786;27;89143;-70
2022/04/05 00:47:39;;;;;;;3.42;3.13;;;21.10;64.60;;;;;;6258401;27;87338;-70
2022/04/05 00:50:41;;;;;;;3.72;3.42;;;21.10;64.60;;;;;;6258912;27;89075;-70
2022/04/05 00:53:47;;;;;;;4.03;3.63;;;21.10;64.60;;;;;;6256364;27;89025;-71
2022/04/05 00:56:52;;;;;;;4.03;3.63;;;21.10;65.50;;;;;;6257871;27;87277;-70
2022/04/05 00:59:56;;;;;;;4.22;3.83;;;21.10;64.60;;;;;;6257208;27;89904;-71
2022/04/05 01:03:00;;;;;;;4.30;3.90;;;21.10;64.60;;;;;;6258131;27;88940;-71
2022/04/05 01:06:04;;;;;;;4.57;4.18;;;21.10;64.60;;;;;;6257022;27;90085;-70
2022/04/05 01:09:09;;;;;;;4.55;4.15;;;21.10;64.60;;;;;;6255326;27;89204;-70
2022/04/05 01:12:14;;;;;;;5.05;4.55;;;21.00;64.50;;;;;;6255430;27;89120;-70
2022/04/05 01:15:16;;;;;;;5.00;4.50;;;21.00;64.60;;;;;;6254887;27;87851;-70
2022/04/05 01:18:18;;;;;;;4.43;4.03;;;21.00;64.60;;;;;;6257229;27;89348;-70
2022/04/05 01:21:20;;;;;;;4.80;4.35;;;21.00;64.60;;;;;;6255885;27;89031;-70
2022/04/05 01:24:24;;;;;;;4.95;4.50;;;21.00;64.60;;;;;;6256119;27;89062;-70
2022/04/05 01:27:27;;;;;;;5.13;4.65;;;21.00;64.50;;;;;;6258439;27;88317;-70
2022/04/05 01:30:29;;;;;;;5.47;4.80;;;21.00;64.60;;;;;;6255944;27;89000;-70
2022/04/05 01:33:31;;;;;;;5.60;5.10;;;21.00;64.50;;;;;;6256397;27;89073;-70
2022/04/05 01:36:33;;;;;;;6.65;5.65;;;21.00;64.60;;;;;;6257371;27;90248;-70
2022/04/05 01:39:39;;;;;;;6.13;5.53;;;21.00;64.60;;;;;;6255029;27;89119;-70
2022/04/05 01:42:41;;;;;;;6.40;5.70;;;21.00;64.60;;;;;;6253909;27;88368;-70
2022/04/05 01:45:45;;;;;;;6.95;6.25;;;21.00;64.60;;;;;;6256868;27;89526;-70
2022/04/05 01:48:47;;;;;;;6.95;6.28;;;21.00;64.60;;;;;;6257977;27;89049;-71
2022/04/05 01:51:50;;;;;;;7.00;6.30;;;21.00;64.60;;;;;;6253766;27;89042;-70
2022/04/05 01:54:53;;;;;;;7.07;6.25;;;21.00;64.60;;;;;;6253442;27;89308;-70
2022/04/05 01:57:55;;;;;;;7.65;6.85;;;21.00;64.60;;;;;;6254186;27;87559;-71
2022/04/05 02:01:00;;;;;;;8.25;7.45;;;21.00;64.70;;;;;;6254482;27;88243;-70
2022/04/05 02:04:02;;;;;;;8.00;7.28;;;21.00;64.70;;;;;;6241286;27;87038;-70
2022/04/05 02:07:10;;;;;;;8.60;7.80;;;20.90;64.60;;;;;;6252282;27;88930;-70
2022/04/05 02:10:14;;;;;;;8.65;7.85;;;21.00;64.80;;;;;;6254163;27;89046;-70
2022/04/05 02:13:16;;;;;;;9.25;8.35;;;20.90;64.60;;;;;;6255073;27;89053;-71
2022/04/05 02:16:18;;;;;;;9.68;8.68;;;20.90;64.60;;;;;;6250455;27;89156;-71
2022/04/05 02:19:20;;;;;;;9.45;8.55;;;20.90;64.60;;;;;;6256742;27;89161;-70
2022/04/05 02:22:22;;;;;;;10.20;9.20;;;20.90;64.60;;;;;;6243058;27;89191;-71
2022/04/05 02:25:26;;;;;;;10.23;9.20;;;20.90;64.60;;;;;;6255459;27;89076;-70
2022/04/05 02:28:28;;;;;;;11.00;9.90;;;20.90;64.60;;;;;;6242589;27;87233;-70
2022/04/05 02:31:30;;;;;;;10.85;9.75;;;20.90;64.70;;;;;;6257220;27;89058;-71
2022/04/05 02:34:32;;;;;;;11.02;9.93;;;20.90;64.60;;;;;;6256338;27;89229;-71
2022/04/05 02:37:34;;;;;;;11.05;9.95;;;20.90;64.70;;;;;;6254991;27;90471;-70
2022/04/05 02:40:37;;;;;;;11.45;10.27;;;20.90;64.60;;;;;;6257139;27;88993;-71
2022/04/05 02:43:40;;;;;;;11.75;10.63;;;20.90;64.60;;;;;;6247202;27;89172;-71
2022/04/05 02:46:45;;;;;;;11.90;10.70;;;20.90;64.60;;;;;;6248750;27;89266;-71
2022/04/05 02:49:47;;;;;;;11.30;10.20;;;20.90;64.70;;;;;;6254667;27;89057;-72
2022/04/05 02:52:49;;;;;;;11.85;10.70;;;20.90;64.80;;;;;;6258388;27;89471;-71
2022/04/05 02:55:52;;;;;;;12.27;11.07;;;20.90;64.80;;;;;;6258264;27;89106;-71
2022/04/05 02:58:55;;;;;;;12.25;11.05;;;20.90;64.70;;;;;;6259320;27;88419;-72
2022/04/05 03:01:57;;;;;;;12.32;11.13;;;20.90;64.70;;;;;;6260148;27;88012;-70
2022/04/05 03:04:58;;;;;;;11.73;10.63;;;20.80;64.60;;;;;;6247022;27;89158;-71
2022/04/05 03:08:01;;;;;;;13.25;11.85;;;20.90;64.80;;;;;;6242425;27;90324;-71
2022/04/05 03:11:04;;;;;;;12.52;11.30;;;20.90;64.80;;;;;;6237780;27;89093;-70
2022/04/05 03:14:06;;;;;;;12.00;10.80;;;20.80;64.80;;;;;;6254765;27;89155;-71
2022/04/05 03:17:08;;;;;;;11.80;10.60;;;20.90;64.80;;;;;;6259013;27;89051;-71
2022/04/05 03:20:12;;;;;;;12.77;11.48;;;20.90;64.80;;;;;;6258084;27;88042;-70
2022/04/05 03:23:14;;;;;;;12.55;11.35;;;20.80;65.00;;;;;;6258586;28;88568;-69
2022/04/05 03:26:18;;;;;;;13.07;11.75;;;20.80;64.80;;;;;;6259042;27;89136;-70
2022/04/05 03:29:20;;;;;;;12.55;11.25;;;20.80;64.80;;;;;;6258374;27;88256;-70
2022/04/05 03:32:22;;;;;;;12.82;11.52;;;20.80;64.70;;;;;;6257579;27;89084;-70
2022/04/05 03:35:24;;;;;;;12.70;11.40;;;20.90;64.80;;;;;;6257020;27;89395;-70
2022/04/05 03:38:26;;;;;;;12.10;10.90;;;20.80;64.60;;;;;;6244589;27;89660;-70
2022/04/05 03:41:29;;;;;;;12.55;11.35;;;20.80;64.60;;;;;;6258879;27;89362;-70
2022/04/05 03:44:31;;;;;;;12.02;10.82;;;20.80;64.60;;;;;;6257901;27;87959;-70
2022/04/05 03:47:33;;;;;;;11.88;10.68;;;20.90;64.60;;;;;;6256939;27;88956;-69
2022/04/05 03:50:35;;;;;;;12.13;10.93;;;20.90;64.60;;;;;;6258834;27;89120;-70
2022/04/05 03:53:37;;;;;;;11.93;10.73;;;20.90;64.60;;;;;;6244351;27;89074;-70
2022/04/05 03:56:41;;;;;;;11.63;10.52;;;20.90;65.50;;;;;;6256968;27;89417;-70
2022/04/05 03:59:43;;;;;;;11.43;10.32;;;20.90;64.50;;;;;;6257908;27;88570;-70
2022/04/05 04:02:45;;;;;;;11.70;10.50;;;20.90;64.50;;;;;;6257870;27;89060;-70
2022/04/05 04:05:47;;;;;;;10.95;9.88;;;20.90;64.40;;;;;;6245937;27;89060;-71
2022/04/05 04:08:49;;;;;;;10.98;9.88;;;21.00;64.60;;;;;;6256471;27;89984;-70
2022/04/05 04:11:53;;;;;;;11.52;10.43;;;20.90;64.50;;;;;;6259864;27;89623;-70
2022/04/05 04:14:55;;;;;;;10.90;9.80;;;20.90;64.50;;;;;;6255930;27;88869;-70
2022/04/05 04:17:57;;;;;;;11.27;10.18;;;20.90;64.40;;;;;;6252814;27;87979;-70
2022/04/05 04:20:59;;;;;;;11.73;10.52;;;20.90;64.40;;;;;;6256215;27;87340;-71
2022/04/05 04:24:01;;;;;;;10.93;9.82;;;20.90;64.40;;;;;;6258013;27;89135;-69
2022/04/05 04:27:06;;;;;;;11.20;10.10;;;21.00;64.40;;;;;;6257295;27;90877;-71
2022/04/05 04:30:09;;;;;;;10.95;9.85;;;21.00;64.40;;;;;;6256960;27;88334;-70
2022/04/05 04:33:13;;;;;;;10.65;9.57;;;21.00;64.40;;;;;;6259060;27;89058;-70
2022/04/05 04:36:15;;;;;;;11.13;10.02;;;21.00;64.30;;;;;;6244929;27;89526;-70
2022/04/05 04:39:18;;;;;;;11.02;9.93;;;21.10;64.30;;;;;;6255794;27;90056;-70
2022/04/05 04:42:21;;;;;;;10.05;9.10;;;21.00;64.30;;;;;;6244455;27;89245;-70
2022/04/05 04:45:26;;;;;;;9.82;8.93;;;21.00;64.30;;;;;;6257782;27;89128;-69
2022/04/05 04:48:28;;;;;;;10.48;9.48;;;21.10;64.40;;;;;;6259082;27;87851;-70
2022/04/05 04:51:30;;;;;;;10.80;9.70;;;21.00;64.30;;;;;;6257921;27;88954;-70
2022/04/05 04:54:32;;;;;;;9.60;8.70;;;21.10;64.30;;;;;;6256815;27;89096;-71
2022/04/05 04:57:35;;;;;;;10.20;9.20;;;21.10;64.40;;;;;;6258104;27;88959;-71
2022/04/05 05:00:37;;;;;;;9.75;8.85;;;21.10;64.30;;;;;;6257942;28;88301;-70
2022/04/05 05:03:39;;;;;;;9.85;8.95;;;21.10;64.30;;;;;;6256087;27;89176;-70
2022/04/05 05:06:41;;;;;;;9.60;8.70;;;21.10;64.30;;;;;;6257007;27;89115;-71
2022/04/05 05:09:44;;;;;;;9.80;8.90;;;21.10;64.30;;;;;;6257381;27;90414;-70
2022/04/05 05:12:48;;;;;;;9.48;8.52;;;21.10;64.40;;;;;;6258198;27;89139;-69
2022/04/05 05:15:50;;;;;;;9.30;8.40;;;21.10;65.20;;;;;;6255495;27;87867;-69
2022/04/05 05:18:52;;;;;;;8.88;8.07;;;21.10;64.30;;;;;;6258165;27;89386;-70
2022/04/05 05:21:54;;;;;;;9.50;8.60;;;21.10;64.30;;;;;;6257361;28;88152;-70
2022/04/05 05:24:56;;;;;;;8.85;8.05;;;21.10;64.30;;;;;;6257033;27;89007;-70
2022/04/05 05:28:00;;;;;;;8.75;7.95;;;21.10;64.30;;;;;;6255616;27;89068;-70
2022/04/05 05:31:02;;;;;;;9.60;8.60;;;21.10;64.20;;;;;;6235620;27;88243;-70
2022/04/05 05:34:04;;;;;;;8.70;7.80;;;21.10;64.10;;;;;;6246891;27;89223;-70
2022/04/05 05:37:06;;;;;;;9.05;8.15;;;21.10;64.10;;;;;;6250896;27;89054;-70
2022/04/05 05:40:10;;;;;;;8.70;7.88;;;21.10;64.10;;;;;;6255327;27;90053;-71
2022/04/05 05:43:13;;;;;;;8.68;7.88;;;21.20;64.10;;;;;;6255932;27;89180;-70
2022/04/05 05:46:17;;;;;;;8.95;8.05;;;21.20;64.10;;;;;;6256933;27;88765;-70
2022/04/05 05:49:18;;;;;;;8.48;7.68;;;21.20;64.10;;;;;;6256357;27;88002;-70
2022/04/05 05:52:20;;;;;;;8.90;8.00;;;21.20;64.10;;;;;;6256045;28;89159;-70
2022/04/05 05:55:23;;;;;;;8.30;7.50;;;21.20;64.10;;;;;;6255618;27;90386;-70
2022/04/05 05:58:27;;;;;;;8.32;7.53;;;21.20;64.10;;;;;;6256170;27;89340;-71
2022/04/05 06:01:29;;;;;;;7.95;7.15;;;21.20;64.10;;;;;;6256172;27;88280;-70
2022/04/05 06:04:31;;;;;;;7.78;7.07;;;21.20;64.10;;;;;;6255407;27;89098;-71
2022/04/05 06:07:34;;;;;;;7.70;7.00;;;21.20;64.10;;;;;;6257919;27;88153;-70
2022/04/05 06:10:36;;;;;;;7.00;6.40;;;21.20;64.10;;;;;;6255602;27;90167;-70
2022/04/05 06:13:40;;;;;;;7.63;6.93;;;21.20;64.10;;;;;;6254981;27;89351;-69
2022/04/05 06:16:42;;;;;;;6.90;6.30;;;21.20;64.10;;;;;;6256590;27;89092;-69
2022/04/05 06:19:45;;;;;;;7.68;6.97;;;21.20;64.20;;;;;;6256002;27;88274;-70
2022/04/05 06:22:49;;;;;;;7.38;6.68;;;21.20;64.20;;;;;;6255067;27;89037;-70
2022/04/05 06:25:51;;;;;;;7.65;6.95;;;21.20;64.10;;;;;;6258651;27;89015;-70
2022/04/05 06:28:56;;;;;;;7.38;6.68;;;21.20;64.10;;;;;;6259608;28;89087;-70
2022/04/05 06:31:58;;;;;;;7.10;6.40;;;21.20;64.10;;;;;;6259998;27;88309;-70
2022/04/05 06:35:01;;;;;;;6.70;6.10;;;21.20;64.10;;;;;;6258524;27;89062;-70
2022/04/05 06:38:03;;;;;;;7.05;6.35;;;21.20;64.10;;;;;;6261654;27;89066;-70
2022/04/05 06:41:05;;;;;;;6.93;6.28;;;21.20;64.10;;;;;;6247806;27;89820;-70
2022/04/05 06:44:09;;;;;;;6.75;6.15;;;21.20;64.10;;;;;;6257288;27;89135;-70
2022/04/05 06:47:11;;;;;;;6.95;6.35;;;21.20;64.10;;;;;;6260078;27;89105;-70
2022/04/05 06:50:17;;;;;;;6.55;5.95;;;21.30;64.10;;;;;;6259486;27;89143;-71
2022/04/05 06:53:19;;;;;;;6.50;5.90;;;21.30;64.10;;;;;;6260204;27;88895;-71
2022/04/05 06:56:21;;;;;;;6.40;5.80;;;21.30;64.10;;;;;;6259412;27;89173;-70
2022/04/05 06:59:25;;;;;;;6.70;6.10;;;21.20;64.10;;;;;;6261135;27;89089;-70
2022/04/05 07:02:27;;;;;;;6.75;6.05;;;21.20;64.10;;;;;;6260282;27;88637;-71
2022/04/05 07:05:29;;;;;;;6.60;5.90;;;21.30;64.10;;;;;;6258674;27;89367;-70
2022/04/05 07:08:32;;;;;;;6.30;5.70;;;21.30;64.10;;;;;;6259513;27;89249;-70
2022/04/05 07:11:34;;;;;;;5.78;5.28;;;21.20;64.10;;;;;;6258470;28;89915;-70
2022/04/05 07:14:37;;;;;;;6.05;5.55;;;21.30;64.10;;;;;;6260870;27;89366;-70
2022/04/05 07:17:40;;;;;;;6.13;5.57;;;21.30;64.10;;;;;;6257722;27;88847;-70
2022/04/05 07:20:42;;;;;;;5.82;5.32;;;21.30;64.10;;;;;;6260191;27;89322;-71
2022/04/05 07:23:46;;;;;;;5.70;5.20;;;21.30;64.10;;;;;;6258965;27;87980;-70
2022/04/05 07:26:48;;;;;;;6.10;5.50;;;21.30;64.10;;;;;;6260372;27;88888;-70
2022/04/05 07:29:52;;;;;;;5.97;5.40;;;21.30;64.10;;;;;;6257340;27;89073;-69
2022/04/05 07:32:54;;;;;;;6.05;5.45;;;21.30;64.10;;;;;;6259740;27;87241;-71
2022/04/05 07:35:56;;;;;;;5.60;5.07;;;21.30;64.10;;;;;;6258067;27;89050;-70
2022/04/05 07:38:58;;;;;;;5.38;4.88;;;21.30;64.10;;;;;;6257387;27;88992;-71
2022/04/05 07:42:00;;;;;;;5.60;5.10;;;21.30;64.10;;;;;;6259630;27;89043;-70
2022/04/05 07:45:04;;;;;;;6.20;5.60;;;21.30;64.10;;;;;;6260148;27;89084;-70
2022/04/05 07:48:06;;;;;;;5.35;4.85;;;21.30;64.10;;;;;;6258527;27;89694;-70
2022/04/05 07:51:09;;;;;;;5.57;5.07;;;21.30;64.10;;;;;;6260305;27;89210;-70
2022/04/05 07:54:11;;;;;;;5.50;5.00;;;21.30;64.10;;;;;;6259609;27;88267;-70
2022/04/05 07:57:13;;;;;;;5.47;4.97;;;21.30;64.00;;;;;;6259157;28;88151;-70
2022/04/05 08:00:17;;;;;;;5.30;4.80;;;21.30;64.10;;;;;;6258015;27;89183;-70
2022/04/05 08:03:20;;;;;;;5.28;4.78;;;21.30;64.10;;;;;;6259257;27;88355;-70
2022/04/05 08:06:23;;;;;;;5.00;4.60;;;21.30;64.10;;;;;;6257082;27;89159;-70
2022/04/05 08:09:25;;;;;;;5.10;4.60;;;21.30;64.10;;;;;;6259473;28;89216;-70
2022/04/05 08:12:27;;;;;;;5.10;4.70;;;21.30;64.20;;;;;;6250716;27;89922;-71
2022/04/05 08:15:30;;;;;;;5.55;5.05;;;21.30;64.10;;;;;;6246638;27;88930;-70
2022/04/05 08:18:32;;;;;;;5.30;4.80;;;21.30;64.20;;;;;;6258439;27;89417;-71
2022/04/05 08:21:34;;;;;;;5.25;4.75;;;21.30;64.10;;;;;;6258792;27;89408;-71
2022/04/05 08:24:36;;;;;;;4.63;4.22;;;21.30;64.20;;;;;;6258394;27;89364;-70
2022/04/05 08:27:39;;;;;;;4.63;4.22;;;21.30;64.20;;;;;;6257503;27;89097;-70
2022/04/05 08:30:42;;;;;;;5.00;4.53;;;21.30;64.30;;;;;;6257173;27;87958;-70
2022/04/05 08:33:44;;;;;;;4.80;4.40;;;21.30;64.20;;;;;;6259306;28;88256;-70
2022/04/05 08:36:47;;;;;;;4.90;4.45;;;21.30;64.20;;;;;;6257536;27;88049;-69
2022/04/05 08:39:50;;;;;;;5.22;4.72;;;21.30;64.20;;;;;;6256961;27;88978;-70
2022/04/05 08:42:54;;;;;;;4.80;4.30;;;21.30;64.30;;;;;;6246143;27;89996;-70
2022/04/05 08:45:59;;;;;;;4.82;4.43;;;21.40;64.40;;;;;;6244934;28;89131;-70
2022/04/05 08:49:01;;;;;;;4.78;4.38;;;21.40;64.40;;;;;;6256785;27;89034;-70
2022/04/05 08:52:04;;;;;;;4.60;4.20;;;21.30;64.20;;;;;;6256468;27;89054;-70
2022/04/05 08:55:07;;;;;;;4.60;4.20;;;21.40;64.40;;;;;;6257978;27;89111;-69
2022/04/05 08:58:09;;;;;;;4.65;4.25;;;21.30;64.30;;;;;;6256501;27;89058;-70
2022/04/05 09:01:12;;;;;;;4.95;4.55;;;21.40;64.40;;;;;;6256083;27;89032;-70
2022/04/05 09:04:14;;;;;;;4.50;4.10;;;21.40;64.40;;;;;;6258180;27;88315;-69
2022/04/05 09:07:21;;;;;;;4.45;4.05;;;21.40;64.40;;;;;;6257840;28;89443;-70
2022/04/05 09:10:24;;;;;;;4.60;4.20;;;21.40;64.50;;;;;;6257266;27;89338;-70
2022/04/05 09:13:27;;;;;;;4.32;3.92;;;21.30;64.40;;;;;;6255402;27;89999;-70
2022/04/05 09:16:32;;;;;;;4.88;4.38;;;21.30;64.40;;;;;;6258084;27;90011;-70
2022/04/05 09:19:38;;;;;;;4.53;4.13;;;21.30;64.40;;;;;;6252766;28;87931;-70
2022/04/05 09:22:40;;;;;;;4.40;4.00;;;21.30;64.60;;;;;;6258337;27;87965;-71
2022/04/05 09:25:54;;;;;;;4.45;4.05;;;21.20;64.50;;;;;;6256978;27;89313;-70
2022/04/05 09:29:06;;;;;;;4.40;4.00;;;21.30;64.60;;;;;;6251129;27;88974;-69
2022/04/05 09:32:10;;;;;;;4.60;4.20;;;21.30;64.60;;;;;;6248822;28;89428;-70
2022/04/05 09:35:12;;;;;;;4.65;4.25;;;21.30;64.60;;;;;;6255974;27;88354;-69
2022/04/05 09:38:16;;;;;;;4.22;3.83;;;21.30;64.60;;;;;;6247470;27;87853;-70
2022/04/05 09:41:21;;;;;;;4.38;3.97;;;21.30;64.70;;;;;;6255168;27;89050;-70
2022/04/05 09:44:28;;;;;;;4.07;3.78;;;21.30;64.60;;;;;;6243854;27;89997;-69
2022/04/05 09:47:33;;;;;;;4.30;3.90;;;21.30;64.60;;;;;;6242963;28;89047;-70
2022/04/05 09:50:57;;;;;;;3.90;3.60;;;21.30;64.60;;;;;;6256066;27;88039;-70
2022/04/05 09:54:27;;;;;;;4.03;3.63;;;21.30;64.60;;;;;;6244781;27;88928;-69
2022/04/05 09:57:31;;;;;;;4.20;3.80;;;21.30;64.60;;;;;;6246130;27;88333;-70
2022/04/05 10:00:33;;;;;;;3.83;3.53;;;21.30;64.60;;;;;;6255385;27;89018;-69
2022/04/05 10:03:38;;;;;;;3.90;3.50;;;21.30;64.60;;;;;;6257457;27;89358;-70
2022/04/05 10:06:43;;;;;;;4.20;3.80;;;21.30;64.50;;;;;;6245218;27;88934;-69
2022/04/05 10:09:45;;;;;;;3.90;3.60;;;21.40;64.60;;;;;;6255003;27;89225;-70
2022/04/05 10:12:48;;;;;;;4.00;3.70;;;21.30;64.40;;;;;;6257045;27;89029;-70
2022/04/05 10:15:52;;;;;;;4.03;3.63;;;21.40;64.50;;;;;;6256430;27;89904;-69
2022/04/05 10:18:58;;;;;;;3.80;3.50;;;21.40;64.50;;;;;;6254955;27;89539;-70
2022/04/05 10:22:01;;;;;;;3.80;3.50;;;21.40;64.50;;;;;;6243091;28;89301;-70
2022/04/05 10:25:04;;;;;;;4.25;3.85;;;21.40;64.50;;;;;;6254337;27;88954;-70
2022/04/05 10:28:07;;;;;;;3.70;3.40;;;21.40;64.50;;;;;;6256736;27;89055;-69
2022/04/05 10:31:14;;;;;;;3.92;3.60;;;21.30;64.50;;;;;;6256164;28;89115;-70
2022/04/05 10:34:24;;;;;;;4.07;3.67;;;21.40;64.50;;;;;;6255511;27;89074;-69
2022/04/05 10:37:32;;;;;;;3.58;3.28;;;21.40;65.50;;;;;;6254721;27;88356;-69
2022/04/05 10:40:52;;;;;;;3.20;2.90;;;21.40;64.50;;;;;;6254723;27;89438;-69
2022/04/05 10:44:21;;;;;;;3.42;3.10;;;21.40;64.60;;;;;;6255065;27;89037;-69
2022/04/05 10:47:23;;;;;;;3.28;2.97;;;21.40;64.60;;;;;;6256106;27;90047;-69
2022/04/05 10:50:27;;;;;;;3.10;2.80;;;21.40;64.50;;;;;;6253941;28;88054;-70
2022/04/05 10:53:32;;;;;;;3.50;3.20;;;21.40;64.60;;;;;;6256113;27;89012;-70
2022/04/05 10:56:34;;;;;;;3.45;2.85;;;21.40;64.50;;;;;;6257074;27;89332;-70
2022/04/05 10:59:48;;;;;;;3.63;3.33;;;21.40;65.50;;;;;;6255630;27;89081;-69
2022/04/05 11:03:04;;;;;;;3.40;3.10;;;21.40;64.50;;;;;;6248724;27;89166;-70
2022/04/05 11:06:08;;;;;;;3.60;3.30;;;21.40;64.50;;;;;;6230312;27;89365;-69
2022/04/05 11:09:25;;;;;;;3.22;2.92;;;21.40;64.50;;;;;;6250024;27;88569;-70
2022/04/05 11:12:30;;;;;;;3.33;3.03;;;21.40;64.50;;;;;;6257656;27;87746;-70
2022/04/05 11:15:40;;;;;;;3.10;2.90;;;21.40;64.50;;;;;;6254581;27;88758;-69
2022/04/05 11:18:44;;;;;;;3.50;3.20;;;21.40;64.50;;;;;;6259289;28;90273;-70
2022/04/05 11:21:59;;;;;;;3.28;2.97;;;21.40;64.50;;;;;;6258188;27;89037;-70
2022/04/05 11:25:06;;;;;;;2.88;2.67;;;21.40;64.50;;;;;;6245003;27;89152;-70
2022/04/05 11:28:13;;;;;;;3.10;2.80;;;21.40;65.50;;;;;;6258738;27;88951;-70
2022/04/05 11:31:28;;;;;;;3.10;2.80;;;21.40;64.50;;;;;;6257936;27;88297;-70
2022/04/05 11:34:34;;;;;;;2.90;2.70;;;21.40;64.60;;;;;;6259561;27;89353;-69
2022/04/05 11:37:38;;;;;;;2.88;2.67;;;21.40;64.70;;;;;;6259170;27;89375;-70
2022/04/05 11:40:42;;;;;;;2.97;2.67;;;21.40;64.60;;;;;;6258296;27;88334;-70
2022/04/05 11:43:46;;;;;;;3.10;2.80;;;21.40;64.60;;;;;;6259404;27;89061;-70
2022/04/05 11:46:48;;;;;;;2.70;2.50;;;21.40;64.70;;;;;;6258401;27;89612;-70
2022/04/05 11:49:51;;;;;;;3.00;2.80;;;21.40;64.60;;;;;;6257701;27;90011;-70
2022/04/05 11:52:55;;;;;;;2.60;2.28;;;21.50;64.70;;;;;;6259785;28;89179;-70
2022/04/05 11:56:12;;;;;;;2.60;2.40;;;21.50;64.70;;;;;;6257959;27;89236;-69
2022/04/05 11:59:16;;;;;;;2.80;2.60;;;21.40;64.60;;;;;;6260047;27;89337;-70
2022/04/05 12:02:28;;;;;;;2.90;2.70;;;21.40;64.60;;;;;;6256951;27;89118;-69
2022/04/05 12:05:41;;;;;;;3.00;2.55;;;21.50;64.70;;;;;;6248043;27;88108;-70
2022/04/05 12:08:46;;;;;;;2.90;2.70;;;21.40;64.60;;;;;;6259138;27;89288;-69
2022/04/05 12:11:49;;;;;;;2.70;2.50;;;21.50;64.70;;;;;;6258206;27;88510;-70
2022/04/05 12:14:51;;;;;;;2.60;2.40;;;21.50;64.60;;;;;;6260680;27;89142;-69
2022/04/05 12:18:17;;;;;;;2.72;2.53;;;21.50;64.70;;;;;;6258666;28;89022;-69
2022/04/05 12:21:21;;;;;;;3.03;2.60;;;21.40;64.60;;;;;;6257315;27;91542;-70
2022/04/05 12:24:25;;;;;;;2.60;2.40;;;21.50;64.60;;;;;;6258842;27;89208;-69
2022/04/05 12:27:28;;;;;;;2.50;2.30;;;21.50;64.60;;;;;;6256961;27;89068;-69
2022/04/05 12:30:32;;;;;;;2.50;2.30;;;21.40;64.60;;;;;;6257626;27;89102;-70
2022/04/05 12:33:34;;;;;;;2.65;2.45;;;21.50;64.70;;;;;;6255720;27;87455;-69
2022/04/05 12:36:38;;;;;;;2.55;2.20;;;21.50;64.70;;;;;;6247442;27;89084;-69
2022/04/05 12:39:44;;;;;;;2.25;2.05;;;21.50;64.70;;;;;;6257205;27;87977;-69
2022/04/05 12:42:46;;;;;;;2.50;2.30;;;21.50;64.70;;;;;;6246255;28;88719;-70
2022/04/05 12:45:49;;;;;;;2.40;2.20;;;21.40;64.70;;;;;;6256526;27;89369;-69
2022/04/05 12:48:51;;;;;;;2.33;2.13;;;21.40;64.70;;;;;;6258732;27;89311;-69
2022/04/05 12:51:54;;;;;;;2.30;2.10;;;21.50;64.70;;;;;;6256453;27;90029;-70
2022/04/05 12:55:00;;;;;;;2.40;2.20;;;21.40;64.70;;;;;;6259004;27;88991;-69
2022/04/05 12:58:02;;;;;;;2.30;2.10;;;21.50;64.70;;;;;;6259003;27;89280;-70
2022/04/05 13:01:16;;;;;;;2.10;1.90;;;21.40;64.70;;;;;;6257485;27;89018;-69
2022/04/05 13:04:23;;;;;;;2.50;2.30;;;21.40;64.70;;;;;;6255924;27;89132;-69
2022/04/05 13:07:25;;;;;;;1.90;1.80;;;21.40;64.70;;;;;;6253597;27;89093;-70
2022/04/05 13:10:36;;;;;;;2.20;2.00;;;21.40;64.70;;;;;;6235254;27;89334;-69
2022/04/05 13:13:39;;;;;;;2.20;2.00;;;21.40;64.70;;;;;;6257581;27;88309;-69
2022/04/05 13:16:41;;;;;;;2.20;2.00;;;21.50;64.80;;;;;;6255831;27;89020;-69
2022/04/05 13:19:54;;;;;;;2.40;2.20;;;21.40;64.70;;;;;;6258208;27;89170;-69
2022/04/05 13:23:01;;;;;;;2.30;2.10;;;21.50;64.80;;;;;;6249715;27;90100;-69
2022/04/05 13:26:18;;;;;;;2.00;1.90;;;21.50;64.80;;;;;;6241259;27;89271;-70
2022/04/05 13:29:23;;;;;;;2.33;2.13;;;21.50;64.70;;;;;;6257184;27;89134;-69
2022/04/05 13:32:26;;;;;;;2.35;2.10;;;21.50;64.70;;;;;;6257649;27;88257;-69
2022/04/05 13:35:28;;;;;;;2.20;2.00;;;21.50;64.80;;;;;;6254884;27;89453;-70
2022/04/05 13:38:29;;;;;;;2.13;1.92;;;21.50;64.80;;;;;;6255998;27;88950;-69
2022/04/05 13:41:34;;;;;;;2.30;2.10;;;21.50;65.70;;;;;;6257581;27;89081;-69
2022/04/05 13:44:36;;;;;;;2.20;2.00;;;21.40;64.70;;;;;;6256542;27;88603;-69
2022/04/05 13:47:40;;;;;;;2.30;2.10;;;21.50;64.90;;;;;;6257814;27;88259;-69
2022/04/05 13:50:42;;;;;;;1.90;1.80;;;21.50;64.90;;;;;;6256864;27;89399;-70
2022/04/05 13:53:44;;;;;;;2.30;2.10;;;21.50;64.90;;;;;;6254533;27;90036;-69
2022/04/05 13:56:48;;;;;;;1.88;1.70;;;21.50;64.90;;;;;;6255425;27;89210;-69
2022/04/05 13:59:50;;;;;;;1.90;1.80;;;21.40;64.90;;;;;;6258042;27;88968;-70
2022/04/05 14:02:52;;;;;;;2.25;2.05;;;21.50;64.90;;;;;;6256906;27;88952;-69
2022/04/05 14:05:54;;;;;;;1.80;1.70;;;21.50;64.90;;;;;;6256112;27;89115;-70
2022/04/05 14:08:57;;;;;;;2.15;1.98;;;21.50;64.90;;;;;;6256864;27;89339;-70
2022/04/05 14:12:00;;;;;;;1.83;1.73;;;21.50;64.90;;;;;;6253029;27;89071;-70
2022/04/05 14:15:03;;;;;;;1.70;1.60;;;21.50;64.90;;;;;;6236572;27;88486;-69
2022/04/05 14:18:05;;;;;;;1.90;1.80;;;21.50;64.90;;;;;;6250385;27;89401;-70
2022/04/05 14:21:07;;;;;;;1.85;1.75;;;21.50;64.90;;;;;;6241987;27;88059;-70
2022/04/05 14:24:10;;;;;;;1.80;1.70;;;21.50;64.80;;;;;;6256731;28;90418;-69
2022/04/05 14:27:13;;;;;;;2.08;1.88;;;21.50;64.90;;;;;;6254738;27;88423;-69
2022/04/05 14:30:15;;;;;;;1.90;1.80;;;21.50;64.80;;;;;;6244111;27;88284;-70
2022/04/05 14:33:17;;;;;;;1.75;1.65;;;21.50;64.80;;;;;;6256602;27;88990;-70
2022/04/05 14:36:19;;;;;;;2.08;1.90;;;21.50;64.80;;;;;;6245604;27;89165;-70
2022/04/05 14:39:22;;;;;;;2.25;1.80;;;21.50;64.80;;;;;;6255845;27;89085;-70
2022/04/05 14:42:25;;;;;;;1.88;1.60;;;21.50;64.90;;;;;;6255411;27;89059;-70
2022/04/05 14:45:27;;;;;;;1.77;1.67;;;21.50;64.90;;;;;;6256668;27;87458;-70
2022/04/05 14:48:29;;;;;;;1.80;1.70;;;21.50;64.90;;;;;;6261005;28;89033;-69
2022/04/05 14:51:33;;;;;;;1.83;1.73;;;21.50;64.90;;;;;;6260051;27;89196;-70
2022/04/05 14:54:35;;;;;;;1.92;1.75;;;21.50;64.90;;;;;;6257986;27;90083;-70
2022/04/05 14:57:38;;;;;;;1.60;1.50;;;21.50;64.90;;;;;;6248329;27;89003;-69
2022/04/05 15:00:40;;;;;;;1.70;1.60;;;21.50;65.00;;;;;;6247038;27;89011;-69
2022/04/05 15:03:42;;;;;;;1.52;1.42;;;21.50;64.90;;;;;;6258676;27;87950;-70
2022/04/05 15:06:44;;;;;;;1.75;1.65;;;21.50;64.90;;;;;;6261568;27;89168;-70
2022/04/05 15:09:48;;;;;;;1.67;1.58;;;21.50;64.90;;;;;;6249433;27;89386;-69
2022/04/05 15:12:52;;;;;;;1.80;1.70;;;21.50;64.90;;;;;;6257886;27;89161;-69
2022/04/05 15:15:54;;;;;;;1.83;1.73;;;21.50;64.90;;;;;;6259518;27;88340;-69
2022/04/05 15:18:57;;;;;;;1.92;1.80;;;21.50;65.00;;;;;;6257813;27;89202;-69
2022/04/05 15:21:59;;;;;;;1.80;1.70;;;21.50;64.90;;;;;;6260506;27;89001;-70
2022/04/05 15:25:02;;;;;;;1.60;1.50;;;21.50;64.90;;;;;;6245609;27;90087;-69
2022/04/05 15:28:06;;;;;;;1.65;1.55;;;21.50;64.90;;;;;;6259159;27;89370;-69
2022/04/05 15:31:08;;;;;;;1.73;1.63;;;21.50;64.90;;;;;;6251204;27;87959;-70
2022/04/05 15:34:10;;;;;;;1.70;1.60;;;21.50;64.90;;;;;;6257121;27;89084;-70
2022/04/05 15:37:13;;;;;;;1.70;1.60;;;21.50;64.90;;;;;;6259859;27;89199;-69
2022/04/05 15:40:15;;;;;;;1.70;1.60;;;21.50;64.90;;;;;;6257545;27;89069;-69
2022/04/05 15:43:20;;;;;;;1.63;1.52;;;21.50;64.90;;;;;;6260503;27;89040;-69
2022/04/05 15:46:22;;;;;;;1.80;1.70;;;21.50;65.00;;;;;;6260133;27;88581;-69
2022/04/05 15:49:24;;;;;;;1.60;1.50;;;21.50;65.00;;;;;;6260384;27;90172;-69
2022/04/05 15:52:26;;;;;;;1.65;1.55;;;21.50;65.00;;;;;;6259806;27;89539;-69
2022/04/05 15:55:28;;;;;;;1.75;1.60;;;21.50;65.00;;;;;;6256810;28;90347;-69